sensor_id;sensor_type;location;lat;lon;timestamp;pressure;altitude;pressure_sealevel;temperature;humidity
59154;BME280;44935;48.944;9.418;2022-11-20T00:01:26;98185.99;;;7.83;51.76
59154;BME280;44935;48.944;9.418;2022-11-20T00:03:54;98184.21;;;7.72;51.15
59154;BME280;44935;48.944;9.418;2022-11-20T00:06:22;98185.02;;;7.65;51.41
59154;BME280;44935;48.944;9.418;2022-11-20T00:08:49;98186.62;;;8.02;51.43
59154;BME280;44935;48.944;9.418;2022-11-20T00:11:18;98187.67;;;7.50;51.47
59154;BME280;44935;48.944;9.418;2022-11-20T00:13:48;98184.88;;;7.38;52.12
59154;BME280;44935;48.944;9.418;2022-11-20T00:16:18;98187.04;;;7.41;52.89
59154;BME280;44935;48.944;9.418;2022-11-20T00:18:45;98190.15;;;7.45;52.67
59154;BME280;44935;48.944;9.418;2022-11-20T00:21:13;98187.88;;;7.33;53.27
59154;BME280;44935;48.944;9.418;2022-11-20T00:23:41;98183.58;;;7.39;52.63
59154;BME280;44935;48.944;9.418;2022-11-20T00:26:10;98183.57;;;7.16;52.50
59154;BME280;44935;48.944;9.418;2022-11-20T00:28:38;98182.85;;;7.36;52.81
59154;BME280;44935;48.944;9.418;2022-11-20T00:31:08;98179.59;;;7.62;52.14
59154;BME280;44935;48.944;9.418;2022-11-20T00:33:35;98178.30;;;7.74;51.89
59154;BME280;44935;48.944;9.418;2022-11-20T00:36:04;98179.49;;;8.08;51.64
59154;BME280;44935;48.944;9.418;2022-11-20T00:38:32;98183.77;;;7.83;51.85
59154;BME280;44935;48.944;9.418;2022-11-20T00:41:01;98184.77;;;8.15;50.99
59154;BME280;44935;48.944;9.418;2022-11-20T00:43:29;98182.42;;;8.47;50.21
59154;BME280;44935;48.944;9.418;2022-11-20T00:45:57;98182.71;;;8.60;48.90
59154;BME280;44935;48.944;9.418;2022-11-20T00:48:24;98186.39;;;8.29;50.56
59154;BME280;44935;48.944;9.418;2022-11-20T00:50:52;98191.14;;;8.22;50.44
59154;BME280;44935;48.944;9.418;2022-11-20T00:53:19;98193.13;;;8.69;49.54
59154;BME280;44935;48.944;9.418;2022-11-20T00:55:53;98194.13;;;8.13;50.25
59154;BME280;44935;48.944;9.418;2022-11-20T00:58:20;98195.89;;;8.17;50.72
59154;BME280;44935;48.944;9.418;2022-11-20T01:00:47;98193.49;;;8.10;50.97
59154;BME280;44935;48.944;9.418;2022-11-20T01:03:15;98189.84;;;7.64;51.49
59154;BME280;44935;48.944;9.418;2022-11-20T01:05:42;98194.68;;;6.95;53.99
59154;BME280;44935;48.944;9.418;2022-11-20T01:08:09;98185.02;;;6.30;55.76
59154;BME280;44935;48.944;9.418;2022-11-20T01:10:36;98193.40;;;7.32;53.46
59154;BME280;44935;48.944;9.418;2022-11-20T01:13:03;98192.09;;;7.52;53.33
59154;BME280;44935;48.944;9.418;2022-11-20T01:15:30;98186.89;;;7.81;52.82
59154;BME280;44935;48.944;9.418;2022-11-20T01:18:00;98191.56;;;7.25;52.84
59154;BME280;44935;48.944;9.418;2022-11-20T01:20:27;98194.75;;;7.40;53.40
59154;BME280;44935;48.944;9.418;2022-11-20T01:22:54;98195.22;;;7.52;53.23
59154;BME280;44935;48.944;9.418;2022-11-20T01:25:20;98194.66;;;6.51;55.12
59154;BME280;44935;48.944;9.418;2022-11-20T01:27:47;98199.93;;;7.25;53.03
59154;BME280;44935;48.944;9.418;2022-11-20T01:30:14;98204.40;;;7.61;51.74
59154;BME280;44935;48.944;9.418;2022-11-20T01:32:41;98206.25;;;6.89;54.37
59154;BME280;44935;48.944;9.418;2022-11-20T01:35:08;98206.94;;;7.39;52.99
59154;BME280;44935;48.944;9.418;2022-11-20T01:37:36;98205.29;;;7.62;52.06
59154;BME280;44935;48.944;9.418;2022-11-20T01:40:03;98205.50;;;7.56;52.86
59154;BME280;44935;48.944;9.418;2022-11-20T01:42:31;98204.87;;;8.12;50.33
59154;BME280;44935;48.944;9.418;2022-11-20T01:44:59;98205.14;;;8.52;50.17
59154;BME280;44935;48.944;9.418;2022-11-20T01:47:31;98204.84;;;8.87;49.09
59154;BME280;44935;48.944;9.418;2022-11-20T01:50:10;98203.05;;;8.82;48.92
59154;BME280;44935;48.944;9.418;2022-11-20T01:52:42;98198.09;;;9.01;48.79
59154;BME280;44935;48.944;9.418;2022-11-20T01:55:17;98198.00;;;8.44;49.45
59154;BME280;44935;48.944;9.418;2022-11-20T01:57:45;98199.86;;;8.62;49.54
59154;BME280;44935;48.944;9.418;2022-11-20T02:00:18;98196.10;;;8.44;50.64
59154;BME280;44935;48.944;9.418;2022-11-20T02:02:50;98198.38;;;8.01;51.24
59154;BME280;44935;48.944;9.418;2022-11-20T02:05:24;98191.63;;;8.24;51.30
59154;BME280;44935;48.944;9.418;2022-11-20T02:07:55;98190.06;;;8.19;50.88
59154;BME280;44935;48.944;9.418;2022-11-20T02:10:22;98191.43;;;8.64;50.17
59154;BME280;44935;48.944;9.418;2022-11-20T02:12:50;98194.98;;;8.55;50.64
59154;BME280;44935;48.944;9.418;2022-11-20T02:15:17;98190.10;;;8.20;50.78
59154;BME280;44935;48.944;9.418;2022-11-20T02:17:44;98194.65;;;8.27;51.10
59154;BME280;44935;48.944;9.418;2022-11-20T02:20:12;98193.79;;;8.11;51.67
59154;BME280;44935;48.944;9.418;2022-11-20T02:22:45;98192.51;;;7.88;51.75
59154;BME280;44935;48.944;9.418;2022-11-20T02:25:18;98194.78;;;8.50;51.46
59154;BME280;44935;48.944;9.418;2022-11-20T02:27:46;98190.42;;;8.23;51.55
59154;BME280;44935;48.944;9.418;2022-11-20T02:30:14;98188.08;;;7.99;51.45
59154;BME280;44935;48.944;9.418;2022-11-20T02:32:41;98190.91;;;8.02;51.19
59154;BME280;44935;48.944;9.418;2022-11-20T02:35:35;98190.84;;;8.37;50.92
59154;BME280;44935;48.944;9.418;2022-11-20T02:38:05;98185.49;;;7.88;51.69
59154;BME280;44935;48.944;9.418;2022-11-20T02:40:32;98187.14;;;8.22;51.70
59154;BME280;44935;48.944;9.418;2022-11-20T02:42:59;98184.85;;;7.71;51.98
59154;BME280;44935;48.944;9.418;2022-11-20T02:45:26;98190.58;;;7.74;52.10
59154;BME280;44935;48.944;9.418;2022-11-20T02:47:53;98190.43;;;7.65;52.25
59154;BME280;44935;48.944;9.418;2022-11-20T02:50:20;98192.93;;;7.83;52.04
59154;BME280;44935;48.944;9.418;2022-11-20T02:52:48;98194.08;;;7.74;51.71
59154;BME280;44935;48.944;9.418;2022-11-20T02:55:15;98191.76;;;7.82;51.71
59154;BME280;44935;48.944;9.418;2022-11-20T02:57:42;98193.45;;;8.49;51.03
59154;BME280;44935;48.944;9.418;2022-11-20T03:00:10;98193.83;;;8.72;50.59
59154;BME280;44935;48.944;9.418;2022-11-20T03:02:38;98193.47;;;9.08;49.27
59154;BME280;44935;48.944;9.418;2022-11-20T03:05:05;98187.79;;;9.20;48.56
59154;BME280;44935;48.944;9.418;2022-11-20T03:07:33;98189.27;;;8.93;49.64
59154;BME280;44935;48.944;9.418;2022-11-20T03:09:59;98186.39;;;8.72;50.13
59154;BME280;44935;48.944;9.418;2022-11-20T03:12:26;98183.13;;;9.33;49.23
59154;BME280;44935;48.944;9.418;2022-11-20T03:14:53;98190.23;;;8.92;49.78
59154;BME280;44935;48.944;9.418;2022-11-20T03:17:21;98188.49;;;8.92;49.22
59154;BME280;44935;48.944;9.418;2022-11-20T03:19:47;98184.72;;;9.01;49.18
59154;BME280;44935;48.944;9.418;2022-11-20T03:22:14;98179.26;;;9.02;49.69
59154;BME280;44935;48.944;9.418;2022-11-20T03:24:42;98178.87;;;9.04;49.74
59154;BME280;44935;48.944;9.418;2022-11-20T03:27:09;98181.39;;;8.28;51.00
59154;BME280;44935;48.944;9.418;2022-11-20T03:29:36;98178.71;;;8.58;51.10
59154;BME280;44935;48.944;9.418;2022-11-20T03:32:03;98176.36;;;8.41;50.89
59154;BME280;44935;48.944;9.418;2022-11-20T03:34:31;98172.52;;;8.33;51.17
59154;BME280;44935;48.944;9.418;2022-11-20T03:36:58;98173.21;;;8.24;51.47
59154;BME280;44935;48.944;9.418;2022-11-20T03:39:25;98173.13;;;8.27;51.74
59154;BME280;44935;48.944;9.418;2022-11-20T03:41:51;98170.44;;;8.02;51.78
59154;BME280;44935;48.944;9.418;2022-11-20T03:44:21;98168.60;;;8.29;51.83
59154;BME280;44935;48.944;9.418;2022-11-20T03:46:49;98171.47;;;8.89;50.82
59154;BME280;44935;48.944;9.418;2022-11-20T03:49:15;98170.15;;;8.45;51.15
59154;BME280;44935;48.944;9.418;2022-11-20T03:51:42;98166.88;;;8.97;49.98
59154;BME280;44935;48.944;9.418;2022-11-20T03:54:09;98165.79;;;9.01;49.73
59154;BME280;44935;48.944;9.418;2022-11-20T03:56:37;98165.81;;;8.81;49.94
59154;BME280;44935;48.944;9.418;2022-11-20T03:59:05;98165.02;;;9.00;49.85
59154;BME280;44935;48.944;9.418;2022-11-20T04:01:34;98170.07;;;8.87;50.41
59154;BME280;44935;48.944;9.418;2022-11-20T04:04:03;98167.13;;;8.23;51.58
59154;BME280;44935;48.944;9.418;2022-11-20T04:06:34;98167.83;;;8.37;51.82
59154;BME280;44935;48.944;9.418;2022-11-20T04:09:02;98166.57;;;7.18;53.71
59154;BME280;44935;48.944;9.418;2022-11-20T04:11:30;98169.88;;;8.58;51.38
59154;BME280;44935;48.944;9.418;2022-11-20T04:13:59;98162.98;;;8.59;50.82
59154;BME280;44935;48.944;9.418;2022-11-20T04:16:29;98162.77;;;8.53;50.79
59154;BME280;44935;48.944;9.418;2022-11-20T04:18:58;98160.13;;;8.67;50.86
59154;BME280;44935;48.944;9.418;2022-11-20T04:21:26;98157.83;;;8.19;51.30
59154;BME280;44935;48.944;9.418;2022-11-20T04:23:54;98152.33;;;7.23;52.93
59154;BME280;44935;48.944;9.418;2022-11-20T04:26:28;98153.20;;;6.63;54.22
59154;BME280;44935;48.944;9.418;2022-11-20T04:28:57;98154.23;;;6.45;54.88
59154;BME280;44935;48.944;9.418;2022-11-20T04:31:26;98159.67;;;6.01;56.11
59154;BME280;44935;48.944;9.418;2022-11-20T04:33:54;98156.27;;;6.57;55.23
59154;BME280;44935;48.944;9.418;2022-11-20T04:36:22;98155.58;;;6.25;56.42
59154;BME280;44935;48.944;9.418;2022-11-20T04:38:51;98158.55;;;6.19;56.38
59154;BME280;44935;48.944;9.418;2022-11-20T04:41:20;98154.77;;;6.44;55.32
59154;BME280;44935;48.944;9.418;2022-11-20T04:43:49;98157.88;;;6.45;55.42
59154;BME280;44935;48.944;9.418;2022-11-20T04:46:17;98157.18;;;6.47;55.09
59154;BME280;44935;48.944;9.418;2022-11-20T04:48:45;98155.04;;;6.79;54.71
59154;BME280;44935;48.944;9.418;2022-11-20T04:51:12;98156.96;;;6.97;54.60
59154;BME280;44935;48.944;9.418;2022-11-20T04:53:40;98151.29;;;7.20;54.70
59154;BME280;44935;48.944;9.418;2022-11-20T04:56:08;98154.33;;;7.18;53.80
59154;BME280;44935;48.944;9.418;2022-11-20T04:58:37;98151.95;;;7.03;54.43
59154;BME280;44935;48.944;9.418;2022-11-20T05:01:05;98151.37;;;6.48;54.88
59154;BME280;44935;48.944;9.418;2022-11-20T05:03:33;98153.61;;;6.71;55.27
59154;BME280;44935;48.944;9.418;2022-11-20T05:06:01;98151.78;;;6.79;55.28
59154;BME280;44935;48.944;9.418;2022-11-20T05:08:29;98150.45;;;7.08;54.14
59154;BME280;44935;48.944;9.418;2022-11-20T05:11:00;98155.47;;;6.77;54.67
59154;BME280;44935;48.944;9.418;2022-11-20T05:13:27;98155.20;;;6.97;54.97
59154;BME280;44935;48.944;9.418;2022-11-20T05:15:54;98154.67;;;6.86;55.17
59154;BME280;44935;48.944;9.418;2022-11-20T05:18:20;98152.30;;;6.75;55.11
59154;BME280;44935;48.944;9.418;2022-11-20T05:20:55;98152.51;;;6.90;54.34
59154;BME280;44935;48.944;9.418;2022-11-20T05:23:22;98147.09;;;7.36;54.27
59154;BME280;44935;48.944;9.418;2022-11-20T05:25:52;98148.84;;;7.34;54.26
59154;BME280;44935;48.944;9.418;2022-11-20T05:28:20;98149.47;;;7.36;54.27
59154;BME280;44935;48.944;9.418;2022-11-20T05:30:48;98150.81;;;6.84;53.79
59154;BME280;44935;48.944;9.418;2022-11-20T05:33:16;98150.70;;;6.71;54.58
59154;BME280;44935;48.944;9.418;2022-11-20T05:35:43;98150.71;;;6.62;53.79
59154;BME280;44935;48.944;9.418;2022-11-20T05:38:11;98149.71;;;6.61;54.68
59154;BME280;44935;48.944;9.418;2022-11-20T05:40:38;98147.97;;;6.26;55.36
59154;BME280;44935;48.944;9.418;2022-11-20T05:43:05;98150.46;;;6.32;55.09
59154;BME280;44935;48.944;9.418;2022-11-20T05:45:32;98149.81;;;6.61;54.76
59154;BME280;44935;48.944;9.418;2022-11-20T05:47:59;98149.77;;;6.62;54.28
59154;BME280;44935;48.944;9.418;2022-11-20T05:50:27;98146.79;;;6.12;55.70
59154;BME280;44935;48.944;9.418;2022-11-20T05:52:54;98147.72;;;6.28;55.59
59154;BME280;44935;48.944;9.418;2022-11-20T05:55:21;98149.38;;;6.48;54.93
59154;BME280;44935;48.944;9.418;2022-11-20T05:57:47;98145.10;;;6.38;54.59
59154;BME280;44935;48.944;9.418;2022-11-20T06:00:15;98143.82;;;6.62;55.26
59154;BME280;44935;48.944;9.418;2022-11-20T06:02:42;98145.24;;;6.28;54.31
59154;BME280;44935;48.944;9.418;2022-11-20T06:05:09;98146.31;;;6.26;55.72
59154;BME280;44935;48.944;9.418;2022-11-20T06:07:36;98145.54;;;6.36;55.18
59154;BME280;44935;48.944;9.418;2022-11-20T06:10:03;98143.20;;;6.78;54.74
59154;BME280;44935;48.944;9.418;2022-11-20T06:12:31;98139.66;;;7.01;54.00
59154;BME280;44935;48.944;9.418;2022-11-20T06:14:59;98138.77;;;7.46;53.95
59154;BME280;44935;48.944;9.418;2022-11-20T06:17:26;98136.71;;;7.01;52.13
59154;BME280;44935;48.944;9.418;2022-11-20T06:19:53;98140.63;;;7.40;52.49
59154;BME280;44935;48.944;9.418;2022-11-20T06:22:20;98136.42;;;7.33;53.39
59154;BME280;44935;48.944;9.418;2022-11-20T06:24:47;98139.75;;;7.41;53.28
59154;BME280;44935;48.944;9.418;2022-11-20T06:27:14;98136.28;;;7.44;52.60
59154;BME280;44935;48.944;9.418;2022-11-20T06:29:42;98135.69;;;7.28;52.91
59154;BME280;44935;48.944;9.418;2022-11-20T06:32:09;98133.39;;;6.59;53.43
59154;BME280;44935;48.944;9.418;2022-11-20T06:34:36;98133.07;;;7.48;52.11
59154;BME280;44935;48.944;9.418;2022-11-20T06:37:03;98133.14;;;7.42;52.46
59154;BME280;44935;48.944;9.418;2022-11-20T06:39:30;98133.79;;;7.01;52.92
59154;BME280;44935;48.944;9.418;2022-11-20T06:41:56;98136.62;;;7.06;52.88
59154;BME280;44935;48.944;9.418;2022-11-20T06:44:24;98138.69;;;6.94;53.25
59154;BME280;44935;48.944;9.418;2022-11-20T06:46:52;98141.47;;;7.11;52.57
59154;BME280;44935;48.944;9.418;2022-11-20T06:49:18;98143.13;;;6.94;52.18
59154;BME280;44935;48.944;9.418;2022-11-20T06:51:45;98142.82;;;7.12;52.63
59154;BME280;44935;48.944;9.418;2022-11-20T06:54:12;98139.83;;;7.35;52.99
59154;BME280;44935;48.944;9.418;2022-11-20T06:56:39;98142.18;;;7.40;52.18
59154;BME280;44935;48.944;9.418;2022-11-20T06:59:07;98143.48;;;7.79;51.82
59154;BME280;44935;48.944;9.418;2022-11-20T07:01:34;98140.74;;;7.79;51.18
59154;BME280;44935;48.944;9.418;2022-11-20T07:04:01;98146.66;;;8.05;51.16
59154;BME280;44935;48.944;9.418;2022-11-20T07:06:28;98148.26;;;8.07;50.60
59154;BME280;44935;48.944;9.418;2022-11-20T07:08:55;98146.74;;;8.03;50.29
59154;BME280;44935;48.944;9.418;2022-11-20T07:11:22;98143.70;;;7.52;50.98
59154;BME280;44935;48.944;9.418;2022-11-20T07:13:48;98145.47;;;7.15;52.52
59154;BME280;44935;48.944;9.418;2022-11-20T07:16:16;98143.70;;;7.40;52.30
59154;BME280;44935;48.944;9.418;2022-11-20T07:18:43;98148.18;;;7.57;52.69
59154;BME280;44935;48.944;9.418;2022-11-20T07:21:10;98151.32;;;7.64;52.22
59154;BME280;44935;48.944;9.418;2022-11-20T07:23:37;98151.28;;;7.82;51.81
59154;BME280;44935;48.944;9.418;2022-11-20T07:26:05;98156.88;;;7.46;52.49
59154;BME280;44935;48.944;9.418;2022-11-20T07:28:32;98157.77;;;7.17;52.71
59154;BME280;44935;48.944;9.418;2022-11-20T07:31:00;98160.18;;;6.82;53.66
59154;BME280;44935;48.944;9.418;2022-11-20T07:33:27;98161.07;;;6.59;53.97
59154;BME280;44935;48.944;9.418;2022-11-20T07:35:55;98165.19;;;6.39;53.18
59154;BME280;44935;48.944;9.418;2022-11-20T07:38:27;98172.54;;;6.08;55.16
59154;BME280;44935;48.944;9.418;2022-11-20T07:40:56;98174.47;;;6.41;56.00
59154;BME280;44935;48.944;9.418;2022-11-20T07:43:23;98174.35;;;6.26;57.27
59154;BME280;44935;48.944;9.418;2022-11-20T07:45:52;98173.26;;;6.46;55.91
59154;BME280;44935;48.944;9.418;2022-11-20T07:48:21;98171.14;;;6.78;55.76
59154;BME280;44935;48.944;9.418;2022-11-20T07:50:48;98178.18;;;6.76;55.57
59154;BME280;44935;48.944;9.418;2022-11-20T07:53:15;98175.99;;;6.79;55.63
59154;BME280;44935;48.944;9.418;2022-11-20T07:55:47;98173.32;;;7.01;55.50
59154;BME280;44935;48.944;9.418;2022-11-20T07:58:14;98176.05;;;6.50;56.00
59154;BME280;44935;48.944;9.418;2022-11-20T08:00:41;98174.95;;;5.83;57.96
59154;BME280;44935;48.944;9.418;2022-11-20T08:03:08;98176.87;;;5.97;57.91
59154;BME280;44935;48.944;9.418;2022-11-20T08:05:35;98179.51;;;6.14;57.50
59154;BME280;44935;48.944;9.418;2022-11-20T08:08:02;98177.86;;;6.73;56.32
59154;BME280;44935;48.944;9.418;2022-11-20T08:10:29;98180.82;;;7.13;54.92
59154;BME280;44935;48.944;9.418;2022-11-20T08:12:56;98180.78;;;7.47;54.64
59154;BME280;44935;48.944;9.418;2022-11-20T08:15:22;98183.94;;;7.34;54.56
59154;BME280;44935;48.944;9.418;2022-11-20T08:17:50;98181.25;;;6.89;55.00
59154;BME280;44935;48.944;9.418;2022-11-20T08:20:18;98182.52;;;6.73;55.48
59154;BME280;44935;48.944;9.418;2022-11-20T08:22:45;98185.19;;;7.23;55.79
59154;BME280;44935;48.944;9.418;2022-11-20T08:25:12;98182.53;;;7.39;54.49
59154;BME280;44935;48.944;9.418;2022-11-20T08:27:39;98186.91;;;7.24;54.22
59154;BME280;44935;48.944;9.418;2022-11-20T08:30:07;98187.64;;;7.44;54.68
59154;BME280;44935;48.944;9.418;2022-11-20T08:32:34;98187.31;;;7.23;54.80
59154;BME280;44935;48.944;9.418;2022-11-20T08:35:01;98183.59;;;7.55;54.08
59154;BME280;44935;48.944;9.418;2022-11-20T08:37:28;98183.30;;;7.76;53.70
59154;BME280;44935;48.944;9.418;2022-11-20T08:39:55;98188.49;;;7.86;54.67
59154;BME280;44935;48.944;9.418;2022-11-20T08:42:22;98189.31;;;7.55;53.98
59154;BME280;44935;48.944;9.418;2022-11-20T08:44:49;98195.48;;;7.31;54.41
59154;BME280;44935;48.944;9.418;2022-11-20T08:47:15;98199.00;;;7.15;53.96
59154;BME280;44935;48.944;9.418;2022-11-20T08:49:42;98200.82;;;6.91;53.91
59154;BME280;44935;48.944;9.418;2022-11-20T08:52:09;98203.22;;;7.22;54.35
59154;BME280;44935;48.944;9.418;2022-11-20T08:54:36;98199.16;;;7.67;53.67
59154;BME280;44935;48.944;9.418;2022-11-20T08:57:03;98196.24;;;7.87;53.32
59154;BME280;44935;48.944;9.418;2022-11-20T08:59:30;98194.95;;;8.15;54.17
59154;BME280;44935;48.944;9.418;2022-11-20T09:01:57;98197.24;;;7.65;54.66
59154;BME280;44935;48.944;9.418;2022-11-20T09:04:24;98204.13;;;7.31;55.29
59154;BME280;44935;48.944;9.418;2022-11-20T09:06:51;98203.68;;;7.51;54.88
59154;BME280;44935;48.944;9.418;2022-11-20T09:09:18;98202.31;;;7.46;54.92
59154;BME280;44935;48.944;9.418;2022-11-20T09:11:44;98200.67;;;7.19;55.53
59154;BME280;44935;48.944;9.418;2022-11-20T09:14:13;98208.62;;;7.24;55.02
59154;BME280;44935;48.944;9.418;2022-11-20T09:16:44;98213.83;;;7.52;55.46
59154;BME280;44935;48.944;9.418;2022-11-20T09:19:12;98216.52;;;6.94;56.18
59154;BME280;44935;48.944;9.418;2022-11-20T09:21:39;98220.66;;;6.76;56.83
59154;BME280;44935;48.944;9.418;2022-11-20T09:24:06;98220.08;;;6.89;57.43
59154;BME280;44935;48.944;9.418;2022-11-20T09:26:34;98218.70;;;7.11;56.13
59154;BME280;44935;48.944;9.418;2022-11-20T09:29:01;98216.24;;;7.82;55.87
59154;BME280;44935;48.944;9.418;2022-11-20T09:31:32;98216.53;;;7.67;54.81
59154;BME280;44935;48.944;9.418;2022-11-20T09:34:00;98216.26;;;8.09;54.61
59154;BME280;44935;48.944;9.418;2022-11-20T09:36:26;98219.43;;;8.15;53.88
59154;BME280;44935;48.944;9.418;2022-11-20T09:38:53;98213.36;;;8.26;54.39
59154;BME280;44935;48.944;9.418;2022-11-20T09:41:36;98219.80;;;8.36;53.30
59154;BME280;44935;48.944;9.418;2022-11-20T09:44:19;98227.78;;;8.97;52.37
59154;BME280;44935;48.944;9.418;2022-11-20T09:46:55;98230.09;;;9.12;51.71
59154;BME280;44935;48.944;9.418;2022-11-20T09:49:28;98237.28;;;9.55;51.14
59154;BME280;44935;48.944;9.418;2022-11-20T09:52:18;98232.87;;;9.63;50.47
59154;BME280;44935;48.944;9.418;2022-11-20T09:55:03;98235.31;;;10.03;50.56
59154;BME280;44935;48.944;9.418;2022-11-20T09:57:36;98234.28;;;9.59;51.07
59154;BME280;44935;48.944;9.418;2022-11-20T10:00:06;98231.32;;;9.43;51.38
59154;BME280;44935;48.944;9.418;2022-11-20T10:02:39;98227.84;;;9.20;52.23
59154;BME280;44935;48.944;9.418;2022-11-20T10:05:15;98226.09;;;9.24;52.31
59154;BME280;44935;48.944;9.418;2022-11-20T10:07:51;98221.67;;;8.86;52.46
59154;BME280;44935;48.944;9.418;2022-11-20T10:10:29;98220.89;;;8.94;53.40
59154;BME280;44935;48.944;9.418;2022-11-20T10:13:12;98220.39;;;8.61;54.28
59154;BME280;44935;48.944;9.418;2022-11-20T10:15:50;98221.27;;;8.53;54.68
59154;BME280;44935;48.944;9.418;2022-11-20T10:18:30;98218.49;;;8.60;54.65
59154;BME280;44935;48.944;9.418;2022-11-20T10:21:11;98220.49;;;8.40;54.36
59154;BME280;44935;48.944;9.418;2022-11-20T10:24:01;98218.38;;;8.26;55.20
59154;BME280;44935;48.944;9.418;2022-11-20T10:26:42;98220.15;;;8.18;55.93
59154;BME280;44935;48.944;9.418;2022-11-20T10:29:14;98212.55;;;7.48;57.71
59154;BME280;44935;48.944;9.418;2022-11-20T10:31:44;98221.00;;;6.82;59.05
59154;BME280;44935;48.944;9.418;2022-11-20T10:34:19;98225.23;;;5.98;62.16
59154;BME280;44935;48.944;9.418;2022-11-20T10:36:55;98225.46;;;5.73;62.70
59154;BME280;44935;48.944;9.418;2022-11-20T10:39:32;98228.39;;;5.87;62.44
59154;BME280;44935;48.944;9.418;2022-11-20T10:42:03;98207.33;;;5.36;64.48
59154;BME280;44935;48.944;9.418;2022-11-20T10:48:15;98220.81;;;5.94;64.99
59154;BME280;44935;48.944;9.418;2022-11-20T10:51:02;98226.83;;;5.03;66.07
59154;BME280;44935;48.944;9.418;2022-11-20T10:53:48;98227.99;;;5.16;65.63
59154;BME280;44935;48.944;9.418;2022-11-20T10:56:22;98218.50;;;5.43;65.77
59154;BME280;44935;48.944;9.418;2022-11-20T10:59:35;98218.90;;;5.60;64.90
59154;BME280;44935;48.944;9.418;2022-11-20T11:02:16;98218.05;;;6.08;62.92
59154;BME280;44935;48.944;9.418;2022-11-20T11:04:46;98216.91;;;5.73;64.20
59154;BME280;44935;48.944;9.418;2022-11-20T11:07:16;98212.77;;;5.70;65.03
59154;BME280;44935;48.944;9.418;2022-11-20T11:09:49;98207.99;;;5.54;64.72
59154;BME280;44935;48.944;9.418;2022-11-20T11:12:16;98211.36;;;4.93;66.23
59154;BME280;44935;48.944;9.418;2022-11-20T11:14:47;98211.63;;;5.61;64.76
59154;BME280;44935;48.944;9.418;2022-11-20T11:17:22;98205.71;;;5.22;64.81
59154;BME280;44935;48.944;9.418;2022-11-20T11:20:01;98212.68;;;5.08;66.19
59154;BME280;44935;48.944;9.418;2022-11-20T11:22:31;98203.86;;;4.81;66.95
59154;BME280;44935;48.944;9.418;2022-11-20T11:25:00;98201.85;;;4.87;66.58
59154;BME280;44935;48.944;9.418;2022-11-20T11:27:28;98191.63;;;5.23;65.45
59154;BME280;44935;48.944;9.418;2022-11-20T11:30:12;98185.24;;;5.25;65.13
59154;BME280;44935;48.944;9.418;2022-11-20T11:32:39;98189.69;;;4.76;66.44
59154;BME280;44935;48.944;9.418;2022-11-20T11:35:18;98187.22;;;4.84;66.25
59154;BME280;44935;48.944;9.418;2022-11-20T11:37:47;98183.94;;;5.11;66.41
59154;BME280;44935;48.944;9.418;2022-11-20T11:40:16;98180.97;;;4.81;66.42
59154;BME280;44935;48.944;9.418;2022-11-20T11:42:54;98178.75;;;5.06;65.18
59154;BME280;44935;48.944;9.418;2022-11-20T11:45:23;98174.39;;;5.01;66.03
59154;BME280;44935;48.944;9.418;2022-11-20T11:47:53;98176.65;;;4.78;67.56
59154;BME280;44935;48.944;9.418;2022-11-20T11:50:22;98168.22;;;4.83;66.61
59154;BME280;44935;48.944;9.418;2022-11-20T11:52:59;98168.25;;;5.65;65.33
59154;BME280;44935;48.944;9.418;2022-11-20T11:55:33;98166.16;;;5.66;64.36
59154;BME280;44935;48.944;9.418;2022-11-20T11:58:14;98160.81;;;5.54;64.83
59154;BME280;44935;48.944;9.418;2022-11-20T12:00:50;98163.31;;;6.10;63.02
59154;BME280;44935;48.944;9.418;2022-11-20T12:03:22;98152.21;;;6.39;61.69
59154;BME280;44935;48.944;9.418;2022-11-20T12:05:57;98149.38;;;6.48;61.85
59154;BME280;44935;48.944;9.418;2022-11-20T12:08:48;98148.25;;;7.39;59.64
59154;BME280;44935;48.944;9.418;2022-11-20T12:11:32;98149.18;;;7.20;59.47
59154;BME280;44935;48.944;9.418;2022-11-20T12:14:08;98154.63;;;7.61;58.75
59154;BME280;44935;48.944;9.418;2022-11-20T12:16:39;98147.70;;;5.40;61.65
59154;BME280;44935;48.944;9.418;2022-11-20T12:19:12;98150.07;;;5.00;63.49
59154;BME280;44935;48.944;9.418;2022-11-20T12:21:49;98143.05;;;5.47;64.01
59154;BME280;44935;48.944;9.418;2022-11-20T12:24:41;98147.99;;;5.58;63.57
59154;BME280;44935;48.944;9.418;2022-11-20T12:27:34;98140.87;;;5.32;63.54
59154;BME280;44935;48.944;9.418;2022-11-20T12:30:08;98139.97;;;4.90;62.47
59154;BME280;44935;48.944;9.418;2022-11-20T12:32:55;98136.39;;;5.05;61.84
59154;BME280;44935;48.944;9.418;2022-11-20T12:35:38;98140.20;;;5.50;60.32
59154;BME280;44935;48.944;9.418;2022-11-20T12:38:26;98137.89;;;5.30;60.27
59154;BME280;44935;48.944;9.418;2022-11-20T12:41:04;98133.55;;;5.52;60.10
59154;BME280;44935;48.944;9.418;2022-11-20T12:43:39;98134.00;;;5.41;60.27
59154;BME280;44935;48.944;9.418;2022-11-20T12:46:18;98137.18;;;6.05;59.36
59154;BME280;44935;48.944;9.418;2022-11-20T12:49:02;98131.89;;;6.48;58.57
59154;BME280;44935;48.944;9.418;2022-11-20T12:51:50;98133.16;;;7.34;56.73
59154;BME280;44935;48.944;9.418;2022-11-20T12:54:42;98134.01;;;7.28;56.30
59154;BME280;44935;48.944;9.418;2022-11-20T12:57:29;98135.91;;;6.97;56.32
59154;BME280;44935;48.944;9.418;2022-11-20T13:00:10;98135.32;;;6.40;56.96
59154;BME280;44935;48.944;9.418;2022-11-20T13:03:48;98129.12;;;6.62;57.07
59154;BME280;44935;48.944;9.418;2022-11-20T13:06:20;98125.70;;;5.61;58.06
59154;BME280;44935;48.944;9.418;2022-11-20T13:08:58;98123.32;;;6.19;56.93
59154;BME280;44935;48.944;9.418;2022-11-20T13:11:31;98127.65;;;6.18;55.86
59154;BME280;44935;48.944;9.418;2022-11-20T13:14:11;98128.27;;;6.20;54.59
59154;BME280;44935;48.944;9.418;2022-11-20T13:16:47;98131.47;;;6.46;55.69
59154;BME280;44935;48.944;9.418;2022-11-20T13:19:18;98123.28;;;6.54;55.36
59154;BME280;44935;48.944;9.418;2022-11-20T13:21:47;98125.44;;;6.08;56.05
59154;BME280;44935;48.944;9.418;2022-11-20T13:24:25;98121.93;;;6.20;54.71
59154;BME280;44935;48.944;9.418;2022-11-20T13:27:03;98115.27;;;6.70;53.54
59154;BME280;44935;48.944;9.418;2022-11-20T13:29:33;98121.16;;;5.81;54.86
59154;BME280;44935;48.944;9.418;2022-11-20T13:32:05;98122.58;;;6.09;55.54